createdAt,value
2023-04-28T00:07:10.055Z,11.50
2023-04-28T00:17:15.026Z,11.40
2023-04-28T00:27:18.991Z,11.50
2023-04-28T00:37:23.945Z,11.40
2023-04-28T00:47:27.783Z,11.40
2023-04-28T00:57:32.964Z,11.40
2023-04-28T01:07:37.174Z,11.30
2023-04-28T01:17:42.122Z,11.20
2023-04-28T01:27:47.161Z,11.00
2023-04-28T01:37:50.887Z,10.90
2023-04-28T01:47:55.923Z,10.80
2023-04-28T01:57:59.552Z,11.00
2023-04-28T02:08:04.700Z,11.00
2023-04-28T02:18:08.402Z,11.00
2023-04-28T02:28:14.069Z,11.10
2023-04-28T02:38:20.029Z,11.00
2023-04-28T02:48:25.538Z,10.90
2023-04-28T02:58:29.156Z,10.70
2023-04-28T03:08:34.107Z,10.60
2023-04-28T03:18:37.736Z,10.50
2023-04-28T03:28:42.685Z,10.40
2023-04-28T03:38:46.286Z,10.20
2023-04-28T03:48:51.219Z,10.30
2023-04-28T03:58:54.896Z,10.50
2023-04-28T04:09:00.456Z,10.70
2023-04-28T04:19:04.316Z,10.60
2023-04-28T04:29:18.819Z,10.80
2023-04-28T04:39:22.499Z,10.90
2023-04-28T04:49:27.654Z,10.70
2023-04-28T04:59:31.314Z,10.70
2023-04-28T05:09:36.578Z,10.20
2023-04-28T05:19:40.259Z,10.30
2023-04-28T05:29:45.293Z,10.40
2023-04-28T05:39:48.964Z,10.20
2023-04-28T05:49:53.894Z,10.20
2023-04-28T05:59:57.655Z,10.30
2023-04-28T06:10:02.687Z,10.40
2023-04-28T06:20:08.399Z,10.70
2023-04-28T06:30:20.138Z,10.70
2023-04-28T06:40:23.952Z,10.70
2023-04-28T06:50:28.966Z,10.70
2023-04-28T07:00:32.709Z,10.40
2023-04-28T07:10:37.688Z,10.50
2023-04-28T07:20:41.569Z,10.60
2023-04-28T07:30:46.693Z,10.90
2023-04-28T07:51:00.350Z,11.20
2023-04-28T08:01:04.505Z,11.30
2023-04-28T08:11:09.461Z,11.60
2023-04-28T08:21:13.157Z,11.80
2023-04-28T08:31:18.485Z,12.20
2023-04-28T08:41:22.486Z,12.10
2023-04-28T08:51:34.387Z,12.00
2023-04-28T09:01:38.854Z,12.10
2023-04-28T09:11:55.480Z,12.00
2023-04-28T09:22:00.884Z,12.40
2023-04-28T09:32:19.007Z,12.80
2023-04-28T09:42:34.566Z,13.10
2023-04-28T09:52:40.122Z,13.40
2023-04-28T10:02:46.479Z,13.70
2023-04-28T10:12:52.736Z,14.00
2023-04-28T10:23:12.128Z,14.00
2023-04-28T10:33:27.356Z,14.40
2023-04-28T10:43:37.780Z,15.00
2023-04-28T11:04:22.369Z,15.70
2023-04-28T11:14:33.352Z,16.60
2023-04-28T11:24:38.766Z,16.50
2023-04-28T11:34:42.585Z,16.50
2023-04-28T11:44:53.590Z,16.30
2023-04-28T11:55:00.182Z,17.00
2023-04-28T12:05:10.732Z,17.40
2023-04-28T12:15:14.447Z,17.40
2023-04-28T12:25:20.542Z,17.70
2023-04-28T12:35:25.386Z,17.90
2023-04-28T12:45:31.193Z,18.40
2023-04-28T12:55:35.057Z,18.20
2023-04-28T13:05:40.169Z,18.70
2023-04-28T13:15:43.842Z,19.00
2023-04-28T13:25:48.778Z,19.30
2023-04-28T13:35:52.466Z,19.30
2023-04-28T13:45:57.609Z,19.30
2023-04-28T13:56:01.764Z,19.10
2023-04-28T14:06:08.680Z,18.50
2023-04-28T14:16:13.188Z,18.20
2023-04-28T14:26:18.684Z,18.00
2023-04-28T14:36:22.294Z,17.60
2023-04-28T14:46:27.598Z,17.30
2023-04-28T14:56:33.381Z,17.10
2023-04-28T15:06:39.009Z,17.90
2023-04-28T15:16:42.690Z,18.60
2023-04-28T15:26:47.776Z,18.00
2023-04-28T15:36:53.667Z,17.50
2023-04-28T15:46:58.795Z,17.40
2023-04-28T15:57:03.422Z,17.30
2023-04-28T16:07:08.543Z,17.50
2023-04-28T16:17:12.798Z,17.50
2023-04-28T16:27:18.056Z,17.40
2023-04-28T16:37:21.712Z,17.20
2023-04-28T16:47:27.050Z,17.20
2023-04-28T16:57:30.725Z,18.30
2023-04-28T17:07:36.567Z,20.50
2023-04-28T17:17:40.556Z,22.50
2023-04-28T17:27:47.129Z,19.60
2023-04-28T17:37:50.922Z,18.40
2023-04-28T17:47:57.814Z,21.00
2023-04-28T17:58:01.702Z,23.40
2023-04-28T18:08:07.632Z,20.20
2023-04-28T18:18:11.628Z,18.80
2023-04-28T18:28:16.646Z,17.80
2023-04-28T18:38:20.425Z,17.20
2023-04-28T18:48:25.710Z,16.70
2023-04-28T18:58:29.927Z,16.20
2023-04-28T19:08:38.742Z,15.50
2023-04-28T19:18:42.735Z,15.20
2023-04-28T19:28:47.850Z,15.00
2023-04-28T19:38:51.866Z,14.70
2023-04-28T19:48:56.816Z,14.40
2023-04-28T19:59:00.522Z,14.20
2023-04-28T20:09:06.425Z,14.00
2023-04-28T20:19:10.808Z,13.90
2023-04-28T20:29:16.254Z,13.90
2023-04-28T20:39:20.951Z,13.80
2023-04-28T20:49:29.325Z,13.80
2023-04-28T20:59:33.479Z,13.80
2023-04-28T21:09:38.685Z,13.70
2023-04-28T21:19:42.541Z,13.60
2023-04-28T21:29:50.362Z,13.70
2023-04-28T21:39:54.165Z,13.50
2023-04-28T21:49:59.214Z,13.20
2023-04-28T22:00:05.090Z,13.40
2023-04-28T22:10:13.203Z,13.40
2023-04-28T22:20:17.400Z,13.30
2023-04-28T22:30:26.287Z,13.10
2023-04-28T22:40:30.056Z,12.90
2023-04-28T22:50:41.063Z,12.70
2023-04-28T23:00:44.694Z,12.40
2023-04-28T23:10:49.926Z,12.30
2023-04-28T23:20:54.195Z,12.20
2023-04-28T23:30:59.558Z,12.30
2023-04-28T23:41:06.391Z,11.70
2023-04-28T23:51:11.448Z,11.60
